Latest Weather Observations for Kilmore Gap

IDV60801

Issued at 1:05 pm EDT Tuesday 21 October 2014 (issued every 30 minutes, with the page automatically refreshed every 10 minutes)

About weather observations | Map of weather stations | Latest weather observations for VIC | Other Formats
Station Details ID: 088162 Name: KILMORE GAP Lat: -37.38 Lon: 144.97 Height: 527.8 m
Data from the previous 72 hours. | See also: Recent months at Kilmore Gap
Date/Time
EDT
Temp
°C
App
Temp
°C
Dew
Point
Rel
Hum
%
Delta-T
°C
Wind Press
QNH
hPa
Press
MSL
hPa
Rain
since 9 am
mm
Dir
 
Spd
km/h
Gust
km/h
Spd
kts
Gust
kts
21/01:00pm 19.3 13.9 12.8 66 3.7 N 33 41 18 22 1026.4 - 0.2
21/12:30pm 19.0 13.8 13.4 70 3.2 N 33 41 18 22 1026.8 - 0.2
21/12:00pm 17.7 11.5 11.3 66 3.5 N 35 43 19 23 1026.8 1026.8 0.2
21/11:30am 16.7 9.2 10.8 68 3.2 N 41 54 22 29 1027.0 - 0.2
21/11:00am 16.1 8.5 10.6 70 3.0 N 41 50 22 27 1027.2 - 0.0
21/10:30am 15.1 8.8 11.1 77 2.2 N 35 44 19 24 1027.3 - 0.0
21/10:00am 13.8 6.8 10.0 78 2.0 N 37 48 20 26 1027.1 - 0.0
21/09:30am 13.1 6.6 10.3 83 1.5 N 35 46 19 25 1027.1 - 0.0
21/09:00am 11.9 4.8 9.5 85 1.2 N 37 50 20 27 1026.9 1026.9 0.0
21/08:30am 11.3 3.7 9.2 87 1.1 N 39 46 21 25 1026.7 - 0.0
21/08:00am 10.1 2.8 8.7 91 0.7 N 37 46 20 25 1026.2 - 0.0
21/07:30am 9.1 2.0 7.9 92 0.6 N 35 41 19 22 1025.9 - 0.0
21/07:00am 8.6 1.7 7.4 92 0.6 N 33 39 18 21 1025.8 - 0.0
21/06:30am 8.0 1.6 6.9 93 0.5 N 30 35 16 19 1025.6 - 0.0
21/06:00am 8.6 2.3 7.2 91 0.7 N 30 33 16 18 1025.5 1025.5 0.0
21/05:30am 8.5 3.3 7.1 91 0.7 N 24 28 13 15 1025.5 - 0.0
21/05:00am 8.6 4.3 7.1 90 0.7 N 19 20 10 11 1025.6 - 0.0
21/04:30am 8.6 5.4 6.9 89 0.8 NE 13 15 7 8 1025.6 - 0.0
21/04:00am 8.6 7.2 7.4 92 0.6 SE 4 9 2 5 1025.8 - 0.0
21/03:30am 6.8 4.3 6.7 99 0.0 WSW 9 13 5 7 1026.0 - 0.0
21/03:00am 6.6 3.0 6.6 100 0.0 SW 15 20 8 11 1026.0 1026.0 0.0
21/02:30am 6.3 1.8 6.3 100 0.0 SW 19 22 10 12 1025.9 - 0.0
21/02:00am 6.4 2.0 6.4 100 0.0 SW 19 24 10 13 1026.1 - 0.0
21/01:30am 6.5 2.1 6.5 100 0.0 WSW 19 24 10 13 1026.5 - 0.0
21/01:00am 6.5 1.9 6.4 99 0.0 WSW 20 28 11 15 1026.8 - 0.0
21/12:30am 6.6 2.0 6.5 99 0.0 SW 20 26 11 14 1026.8 - 0.0
21/12:00am 6.8 1.9 6.7 99 0.0 SW 22 30 12 16 1027.0 1027.0 0.0
 
Date/Time
EDT
Temp
°C
App
Temp
°C
Dew
Point
Rel
Hum
%
Delta-T
°C
Wind Press
QNH
hPa
Press
MSL
hPa
Rain
since 9 am
mm
Dir
 
Spd
km/h
Gust
km/h
Spd
kts
Gust
kts
20/11:30pm 7.4 2.2 7.1 98 0.1 SW 24 32 13 17 1027.0 - 0.0
20/11:00pm 7.9 2.8 7.5 97 0.2 SW 24 30 13 16 1027.2 - 0.0
20/10:30pm 8.5 3.8 7.9 96 0.3 SW 22 28 12 15 1027.2 - 0.0
20/10:00pm 8.8 3.8 8.0 95 0.4 SSW 24 32 13 17 1027.3 - 0.0
20/09:30pm 9.3 4.4 8.4 94 0.4 SSW 24 32 13 17 1027.3 - 0.0
20/09:00pm 9.8 4.9 8.6 92 0.6 SW 24 32 13 17 1027.2 1027.2 0.0
20/08:30pm 10.6 5.9 7.7 82 1.4 SW 22 32 12 17 1026.9 - 0.0
20/08:00pm 12.1 7.0 6.2 67 2.9 SSW 22 28 12 15 1026.5 - 0.0
20/07:30pm 12.6 8.1 6.2 65 3.1 S 19 26 10 14 1026.5 - 0.0
20/07:00pm 13.7 9.3 7.2 65 3.3 S 20 33 11 18 1026.4 - 0.0
20/06:30pm 14.3 9.1 7.4 63 3.5 S 24 37 13 20 1026.4 - 0.0
20/06:00pm 14.8 9.2 7.1 60 3.9 S 26 39 14 21 1026.4 1026.5 0.0
20/05:30pm 15.4 9.0 5.3 51 4.9 S 28 41 15 22 1026.4 - 0.0
20/05:00pm 15.7 9.4 5.9 52 4.9 S 28 37 15 20 1026.4 - 0.0
20/04:30pm 16.0 10.6 6.2 52 4.9 S 24 37 13 20 1026.5 - 0.0
20/04:00pm 15.8 9.8 5.1 49 5.2 S 26 39 14 21 1026.7 - 0.0
20/03:30pm 16.1 10.4 6.5 53 4.8 S 26 43 14 23 1026.9 - 0.0
20/03:00pm 15.6 10.1 6.1 53 4.7 S 24 43 13 23 1027.1 1027.1 0.0
20/02:30pm 14.9 8.5 5.4 53 4.6 S 28 41 15 22 1027.2 - 0.0
20/02:00pm 14.9 7.9 6.0 55 4.4 S 32 43 17 23 1027.5 - 0.0
20/01:30pm 13.8 7.3 4.9 55 4.3 S 28 39 15 21 1027.7 - 0.0
20/01:00pm 13.5 6.6 4.6 55 4.2 S 30 39 16 21 1027.8 - 0.0
20/12:30pm 12.9 7.6 5.1 59 3.7 S 22 39 12 21 1028.3 - 0.0
20/12:00pm 12.6 6.9 6.6 67 2.9 S 26 37 14 20 1028.5 1028.6 0.0
20/11:30am 11.9 5.9 5.5 65 3.1 S 26 37 14 20 1028.8 - 0.0
20/11:00am 11.3 4.9 5.4 67 2.8 S 28 43 15 23 1028.7 - 0.0
20/10:30am 10.9 5.4 5.9 71 2.4 S 24 37 13 20 1028.7 - 0.0
20/10:00am 9.2 1.7 4.6 73 2.1 S 33 43 18 23 1028.7 - 0.0
20/09:30am 8.6 1.3 4.4 75 1.9 S 32 44 17 24 1028.5 - 0.0
20/09:00am 7.7 0.4 4.3 79 1.5 S 32 44 17 24 1028.2 1028.3 0.0
20/08:45am 7.6 0.2 5.1 84 1.1 S 33 52 18 28 1028.1 - 0.0
20/08:30am 7.0 -0.8 4.8 86 1.0 S 35 46 19 25 1027.8 - 0.0
20/08:00am 6.2 -1.6 4.8 91 0.6 S 35 48 19 26 1027.7 - 0.0
20/07:30am 5.6 -2.9 5.0 96 0.3 S 39 52 21 28 1027.4 - 0.0
20/07:00am 5.2 -2.5 5.2 100 0.0 S 35 44 19 24 1027.3 - 0.0
20/06:30am 5.3 -2.8 5.2 99 0.0 S 37 48 20 26 1027.0 - 0.0
20/06:00am 5.5 -2.5 5.5 100 0.0 S 37 52 20 28 1026.4 1026.5 0.0
20/05:50am 5.6 -2.4 5.6 100 0.0 S 37 48 20 26 1026.4 - 0.0
20/05:35am 5.8 -1.8 5.8 100 0.0 S 35 48 19 26 1026.4 - 0.0
20/05:30am 5.9 -1.3 5.9 100 0.0 S 33 48 18 26 1026.4 - 0.0
20/05:00am 6.7 -0.1 6.7 100 0.0 S 32 41 17 22 1026.2 - 0.0
20/04:30am 7.0 0.2 7.0 100 0.0 S 32 43 17 23 1026.1 - 0.0
20/04:00am 7.1 0.2 7.1 100 0.0 S 33 52 18 28 1026.1 - 0.0
20/03:37am 7.6 0.8 7.6 100 0.0 S 33 52 18 28 1026.4 - 0.0
20/03:36am 7.6 0.8 7.6 100 0.0 S 33 52 18 28 1026.4 - 0.0
20/03:30am 7.6 1.0 7.6 100 0.0 S 32 43 17 23 1026.4 - 0.0
20/03:00am 7.5 0.7 7.5 100 0.0 S 33 50 18 27 1026.4 1026.5 0.0
20/02:42am 7.4 0.1 7.4 100 0.0 S 35 50 19 27 1026.5 - 0.0
20/02:30am 7.5 -0.1 7.5 100 0.0 S 37 52 20 28 1026.7 - 0.0
20/02:00am 7.8 0.6 7.8 100 0.0 S 35 50 19 27 1026.5 - 0.0
20/01:30am 8.4 1.0 8.4 100 0.0 S 37 56 20 30 1026.7 - 0.0
20/01:28am 8.4 1.4 8.4 100 0.0 S 35 56 19 30 1026.7 - 0.0
20/01:00am 8.8 1.5 8.8 100 0.0 S 37 50 20 27 1026.8 - 0.0
20/12:30am 9.4 1.9 9.4 100 0.0 S 39 56 21 30 1026.8 - 0.0
20/12:21am 9.7 3.4 9.7 100 0.0 S 33 56 18 30 1026.9 - 0.0
20/12:16am 9.8 3.5 9.7 99 0.1 S 33 44 18 24 1026.9 - 0.0
20/12:00am 9.9 3.6 9.8 99 0.1 S 33 48 18 26 1026.8 1026.8 0.0
 
Date/Time
EDT
Temp
°C
App
Temp
°C
Dew
Point
Rel
Hum
%
Delta-T
°C
Wind Press
QNH
hPa
Press
MSL
hPa
Rain
since 9 am
mm
Dir
 
Spd
km/h
Gust
km/h
Spd
kts
Gust
kts
19/11:30pm 9.9 3.8 9.8 99 0.1 S 32 43 17 23 1027.0 - 0.0
19/11:02pm 10.0 3.8 9.9 99 0.1 S 33 52 18 28 1026.9 - 0.0
19/11:00pm 10.0 3.4 9.9 99 0.1 S 35 52 19 28 1026.8 - 0.0
19/10:30pm 10.2 3.6 9.9 98 0.2 S 35 50 19 27 1026.5 - 0.0
19/10:00pm 10.4 4.9 10.4 100 0.0 S 30 43 16 23 1026.7 - 0.0
19/09:30pm 10.6 5.1 10.6 100 0.0 S 30 39 16 21 1026.4 - 0.0
19/09:09pm 10.6 4.2 10.6 100 0.0 S 35 54 19 29 1026.1 - 0.0
19/09:00pm 10.6 4.2 10.6 100 0.0 S 35 50 19 27 1025.7 1025.7 0.0
19/08:49pm 10.7 4.9 10.7 100 0.0 S 32 48 17 26 1025.6 - 0.0
19/08:30pm 10.8 5.0 10.8 100 0.0 S 32 43 17 23 1025.3 - 0.0
19/08:24pm 10.8 5.0 10.8 100 0.0 S 32 43 17 23 1025.3 - 0.0
19/08:05pm 10.8 5.8 10.8 100 0.0 S 28 41 15 22 1024.9 - 0.0
19/08:00pm 10.8 6.1 10.8 100 0.0 S 26 39 14 21 1024.7 - 0.0
19/07:30pm 11.0 5.3 11.0 100 0.0 S 32 43 17 23 1024.6 - 0.0
19/07:00pm 11.5 6.2 11.3 99 0.1 S 30 43 16 23 1024.1 - 0.0
19/06:30pm 12.2 6.6 12.0 99 0.1 S 33 43 18 23 1023.5 - 0.0
19/06:19pm 12.5 7.4 12.0 97 0.3 S 30 43 16 23 1023.4 - 0.0
19/06:13pm 12.9 8.6 12.0 94 0.5 S 26 41 14 22 1023.3 - 0.0
19/06:00pm 14.1 9.8 12.1 88 1.1 S 26 35 14 19 1022.9 1022.8 0.0
19/05:47pm 17.8 14.2 12.0 69 3.3 SSW 22 33 12 18 1022.1 - 0.0
19/05:30pm 23.1 18.5 9.8 43 7.4 NNE 24 32 13 17 1021.0 - 0.0
19/05:00pm 21.9 16.6 7.0 38 7.8 NNE 24 32 13 17 1020.8 - 0.0
19/04:30pm 22.0 17.2 8.9 43 7.1 N 24 33 13 18 1021.0 - 0.0
19/04:00pm 22.0 16.8 10.2 47 6.6 N 28 37 15 20 1021.1 - 0.0
19/03:30pm 22.3 16.7 10.1 46 6.8 N 30 37 16 20 1021.4 - 0.0
19/03:00pm 23.0 17.3 11.1 47 6.8 N 32 39 17 21 1021.6 1021.6 0.0
19/02:30pm 20.7 14.9 9.3 48 6.2 N 30 37 16 20 1022.3 - 0.0
19/02:00pm 20.1 14.8 9.7 51 5.7 N 28 35 15 19 1022.8 - 0.0
19/01:30pm 18.8 12.3 9.0 53 5.3 N 33 43 18 23 1022.7 - 0.0
19/01:00pm 18.9 12.4 9.1 53 5.3 N 33 44 18 24 1022.3 - 0.0
19/12:30pm 18.5 11.3 9.3 55 5.0 N 37 50 20 27 1022.4 - 0.0
19/12:00pm 17.6 8.8 7.1 50 5.4 N 43 57 23 31 1022.3 1022.3 0.0
19/11:30am 17.1 8.2 7.5 53 5.0 N 44 54 24 29 1023.0 - 0.0
19/11:00am 16.8 8.8 7.4 54 4.8 NNE 39 48 21 26 1023.8 - 0.0
19/10:30am 16.0 8.4 7.7 58 4.3 N 37 46 20 25 1024.3 - 0.0
19/10:00am 15.8 8.5 8.8 63 3.7 N 37 48 20 26 1024.2 - 0.0
19/09:30am 14.6 7.8 7.6 63 3.6 N 33 41 18 22 1024.4 - 0.0
19/09:00am 14.6 7.8 7.6 63 3.5 N 33 43 18 23 1024.0 1024.0 0.0
19/08:30am 14.0 5.1 6.8 62 3.6 N 43 54 23 29 1022.9 - 0.0
19/08:00am 13.5 5.4 6.8 64 3.3 N 39 46 21 25 1023.0 - 0.0
19/07:30am 13.5 5.7 6.8 64 3.3 N 37 44 20 24 1023.2 - 0.0
19/07:00am 13.6 5.3 6.2 61 3.6 N 39 48 21 26 1022.8 - 0.0
19/06:30am 14.1 5.8 6.0 58 4.0 N 39 50 21 27 1022.6 - 0.0
19/06:00am 14.2 5.6 6.3 59 3.9 N 41 52 22 28 1022.6 1022.5 0.0
19/05:30am 14.3 4.7 6.2 58 4.0 N 46 56 25 30 1022.0 - 0.0
19/05:00am 14.3 6.1 6.4 59 3.9 N 39 46 21 25 1022.4 - 0.0
19/04:30am 14.4 5.4 6.3 58 4.0 N 43 50 23 27 1022.4 - 0.0
19/04:00am 14.8 6.1 6.1 56 4.3 N 41 48 22 26 1022.7 - 0.0
19/03:30am 14.2 7.1 6.6 60 3.8 N 33 43 18 23 1022.8 - 0.0
19/03:00am 14.5 7.3 6.1 57 4.1 N 33 41 18 22 1023.3 1023.3 0.0
19/02:30am 14.6 5.9 5.9 56 4.3 N 41 52 22 28 1023.0 - 0.0
19/02:00am 14.7 6.7 5.8 55 4.4 N 37 46 20 25 1023.3 - 0.0
19/01:30am 13.7 6.2 6.1 60 3.7 N 35 41 19 22 1023.5 - 0.0
19/01:00am 14.5 6.5 5.6 55 4.3 N 37 43 20 23 1023.7 - 0.0
19/12:30am 15.0 7.3 5.2 52 4.8 N 35 43 19 23 1023.8 - 0.0
19/12:00am 15.4 7.6 5.0 50 5.0 N 35 41 19 22 1024.0 1024.0 0.0
 
Date/Time
EDT
Temp
°C
App
Temp
°C
Dew
Point
Rel
Hum
%
Delta-T
°C
Wind Press
QNH
hPa
Press
MSL
hPa
Rain
since 9 am
mm
Dir
 
Spd
km/h
Gust
km/h
Spd
kts
Gust
kts
18/11:30pm 15.5 8.1 4.8 49 5.2 N 33 41 18 22 1024.4 - 0.0
18/11:00pm 15.3 7.9 5.2 51 4.9 N 33 39 18 21 1024.4 - 0.0
18/10:30pm 15.4 8.1 5.3 51 4.9 N 33 39 18 21 1024.7 - 0.0
18/10:00pm 15.6 8.5 5.5 51 5.0 N 32 37 17 20 1025.0 - 0.0
18/09:30pm 15.2 8.1 5.4 52 4.8 N 32 39 17 21 1025.1 - 0.0
18/09:00pm 15.7 9.4 5.6 51 4.9 N 28 32 15 17 1025.1 1025.1 0.0
18/08:30pm 16.0 10.1 5.6 50 5.1 N 26 32 14 17 1024.9 - 0.0
18/08:00pm 15.8 10.7 6.0 52 4.9 N 22 28 12 15 1024.9 - 0.0
18/07:30pm 16.1 10.2 6.0 51 5.0 N 26 32 14 17 1024.4 - 0.0
18/07:00pm 17.0 11.3 6.5 50 5.3 N 26 35 14 19 1023.9 - 0.0
18/06:30pm 18.0 11.9 6.5 47 5.9 N 28 35 15 19 1023.8 - 0.0
18/06:00pm 18.6 11.6 6.8 46 6.0 N 33 44 18 24 1023.2 1023.2 0.0
18/05:30pm 18.6 12.1 6.4 45 6.2 N 30 39 16 21 1023.4 - 0.0
18/05:00pm 18.4 11.5 7.2 48 5.8 N 33 43 18 23 1023.3 - 0.0
18/04:30pm 18.6 11.3 7.4 48 5.8 N 35 46 19 25 1023.4 - 0.0
18/04:00pm 19.8 13.6 9.4 51 5.7 N 32 41 17 22 1023.7 - 0.0
18/03:30pm 18.7 12.0 7.2 47 6.0 N 32 43 17 23 1024.2 - 0.0
18/03:00pm 17.3 10.7 8.7 57 4.5 N 33 41 18 22 1024.6 1024.5 0.0
18/02:30pm 17.5 10.8 7.5 52 5.2 N 32 43 17 23 1025.1 - 0.0
18/02:00pm 17.7 10.8 7.2 50 5.4 N 33 44 18 24 1025.3 - 0.0
18/01:30pm 16.8 9.9 7.4 54 4.8 N 33 41 18 22 1025.7 - 0.0

Other Formats:

Comma delimited format used in spreadsheet applications
http://www.bom.gov.au/fwo/IDV60801/IDV60801.94860.axf

JavaScript Object Notation format (JSON) in row-major order
http://www.bom.gov.au/fwo/IDV60801/IDV60801.94860.json